Sonic Adventure (DX): Overall Rankings

Records: Times | Rings | Scores | Races | Bosses | Freestyle
Leaders: Times | Rings | Scores | Races | Bosses | Freestyle | Overall
Rank Order Asc Player Percent Points Date
1 Sonicspeedruner 98.4% 261 07-07-15
2 Gamepro011 97.6% 385 07-07-15
3 DarkPolarNight 96.1% 626 07-07-15
4 Jawzun 93.8% 1011 07-07-15
5 Dashjump 91.6% 1362 07-07-15
6 DarkspinesSonic 90.7% 1519 07-07-15
7 Avento128bits 90.2% 1591 07-07-15
8 ike6252 90.0% 1625 07-07-15
9 F-Man 85.9% 2297 07-07-15
10 HyperSonic7701 85.0% 2445 07-07-15
11 Coolfansonic 83.9% 2634 07-07-15
12 yoshifan 83.4% 2708 07-07-15
13 frankoredstrato 83.0% 2773 07-07-15
14 TheRealShadnic 82.1% 2933 07-07-15
15 francisco 82.0% 2942 07-07-15
16 Marth 81.7% 2990 07-07-15
17 InferSaime 80.4% 3206 07-07-15
18 PfoSonic 80.0% 3274 07-07-15
19 Paragod 79.5% 3352 07-07-15
20 THC98 78.3% 3540 07-07-15
21 Stefan 76.2% 3887 07-07-15
22 RPGnutter 74.0% 4259 07-07-15
23 bertin 73.9% 4268 07-07-15
24 sonicam 71.7% 4637 07-07-15
25 Combo 65.7% 5621 07-07-15
26 SkyLights 64.4% 5821 07-07-15
27 drminus 63.7% 5940 07-07-15
28 xXMegaManXx 63.6% 5956 07-07-15
29 Diamond 62.8% 6092 07-07-15
30 OmegaDJ 60.3% 6495 07-07-15
31 GerbilSoft 60.3% 6497 07-07-15
32 Auriman1 60.2% 6511 07-07-15
33 magnum12 59.3% 6662 07-07-15
34 Dawid8404 59.2% 6685 07-07-15
35 Thorn 57.2% 6999 07-07-15
36 P1 Pause 57.0% 7041 07-07-15
37 mike89 55.8% 7235 07-07-15
38 chainchumper 54.1% 7518 07-07-15
39 Groudon199 53.9% 7545 07-07-15
40 Dave Cramer 53.9% 7547 07-07-15
41 Parax 53.3% 7646 07-07-15
42 Shadow Jacky 52.8% 7735 07-07-15
43 Psymar 47.6% 8575 07-07-15
44 Chao_Fan 45.8% 8872 07-07-15
45 Arch 45.6% 8915 07-07-15
46 mauserman 45.4% 8943 07-07-15
47 Quartz 44.7% 9057 07-07-15
48 teamblackarms 43.7% 9222 07-07-15
49 Psyknux 43.5% 9244 07-07-15
50 James_Bertolli 42.9% 9348 07-07-15
51 NintenDan 42.4% 9433 07-07-15
52 Webber3000 41.8% 9524 07-07-15
53 Fr3nZy 41.7% 9545 07-07-15
54 Turbos 41.7% 9547 07-07-15
55 Ring Rush 41.7% 9553 07-07-15
56 Cream147 41.4% 9599 07-07-15
57 videogamemaster777 41.2% 9626 07-07-15
58 Siavash Tazari 40.9% 9670 07-07-15
59 buddychaos0415 40.6% 9730 07-07-15
60 SadisticMystic 39.9% 9837 07-07-15
61 eggFL 39.0% 9989 07-07-15
62 Redd 38.7% 10040 07-07-15
63 SB737 37.4% 10247 07-07-15
64 supersonicfan 36.3% 10437 07-07-15
65 FuzZerd 35.3% 10599 07-07-15
66 elecmouse101 34.5% 10728 07-07-15
67 supersonic465 34.3% 10755 07-07-15
68 Austinf 33.7% 10864 07-07-15
69 metanightmare22 32.9% 10988 07-07-15
70 Aitamen 32.8% 11000 07-07-15
71 dabestgamer 32.6% 11035 07-07-15
72 MiStEr_ShAoLiN 32.6% 11042 07-07-15
73 Cyan Ryan 32.5% 11049 07-07-15
74 itsPersonnal 31.8% 11174 07-07-15
75 Cybrax 31.1% 11291 07-07-15
76 Andrea Ritsu 30.6% 11359 07-07-15
77 danieldude 30.5% 11385 07-07-15
78 SilvertheAlmighty 30.4% 11390 07-07-15
79 VMU Player Banned 28.9% 11651 07-07-15
80 Omega Rafael Santos 28.5% 11707 07-07-15
81 Staf 28.1% 11774 07-07-15
82 The T 27.9% 11811 07-07-15
83 EngiNerd 27.5% 11873 07-07-15
84 lordmetalsonic 26.9% 11977 07-07-15
85 Hipertails12 26.8% 11993 07-07-15
86 GreatStar 26.3% 12073 07-07-15
87 welldooder64 26.3% 12077 07-07-15
88 Sondow 26.1% 12105 07-07-15
89 Mastakirby 25.9% 12138 07-07-15
90 The Great Lord Mick 25.9% 12139 07-07-15
91 LinksDarkArrows 25.7% 12172 07-07-15
92 Nimrod 25.5% 12193 07-07-15
93 Skylace 24.8% 12313 07-07-15
94 Rolken 23.3% 12563 07-07-15
95 Xia 21.8% 12813 07-07-15
96 Kogen Player Banned 21.6% 12838 07-07-15
97 Spinballwizard 21.5% 12852 07-07-15
98 Don 21.3% 12882 07-07-15
99 Miles9999 21.2% 12904 07-07-15
100 Cutiefox 21.2% 12913 07-07-15
101 Game_Complete 21.1% 12923 07-07-15
102 f0rever_zer0 21.1% 12924 07-07-15
103 andres430 20.3% 13045 07-07-15
104 Cruizer 20.3% 13058 07-07-15
105 iSonicKid2K 20.0% 13103 07-07-15
106 SADXTryHard 19.8% 13137 07-07-15
107 GarnetPrincess 19.3% 13214 07-07-15
108 a_moustache 19.2% 13228 07-07-15
109 knuckles_sonic8 18.7% 13311 07-07-15
110 Team_Yoshi 18.2% 13394 07-07-15
111 KinkyCadence 18.0% 13424 07-07-15
112 The Knuckles Chao 17.9% 13444 07-07-15
113 AxlThunder 17.8% 13460 07-07-15
114 Termon 17.8% 13470 07-07-15
115 FoxBoy 17.7% 13487 07-07-15
116 LittleBigness 17.6% 13501 07-07-15
117 SonicWinDX 17.4% 13525 07-07-15
118 Sonic Singularity 15.5% 13836 07-07-15
119 Pokemonmaster888 15.5% 13842 07-07-15
120 Drakodan 14.4% 14015 07-07-15
121 BigAL49 14.4% 14018 07-07-15
122 SilverSonic 14.3% 14035 07-07-15
123 MPit08 14.1% 14067 07-07-15
124 WeegeeZV 14.1% 14068 07-07-15
125 Mo Player Banned 14.1% 14076 07-07-15
126 Cod4Scopes 13.4% 14181 07-07-15
127 HyperSonic64 13.2% 14213 07-07-15
128 booo95 13.1% 14232 07-07-15
129 Chawkk 13.0% 14242 07-07-15
130 paulie9990 13.0% 14249 07-07-15
131 Hunters13 12.9% 14258 07-07-15
132 SuperSonic101 12.9% 14260 07-07-15
133 Maxinfamily 12.7% 14302 07-07-15
134 Kanimayo_Jp 12.5% 14339 07-07-15
135 PsyBorg 12.4% 14341 07-07-15
136 Flying Fox 12.4% 14346 07-07-15
137 BrokenArthritis 12.3% 14363 07-07-15
138 LilZero 12.2% 14374 07-07-15
139 Jerzia 12.1% 14389 07-07-15
140 Therio 11.7% 14460 07-07-15
141 sonicspeed 11.6% 14481 07-07-15
142 douglas 11.5% 14502 07-07-15
143 Matt_TY 11.2% 14549 07-07-15
144 joecoolgames 10.5% 14652 07-07-15
145 Cooljay 10.5% 14660 07-07-15
146 SeaWolf 10.5% 14664 07-07-15
147 TFEC Headshot 9.9% 14756 07-07-15
148 welshmoose05 9.8% 14768 07-07-15
149 crazy1993 9.6% 14809 07-07-15
150 OddCook 9.6% 14814 07-07-15
151 Mcshuggets 9.5% 14819 07-07-15
152 videogamer1014 9.2% 14865 07-07-15
153 imazor017 9.2% 14868 07-07-15
154 nuckrieg 9.1% 14896 07-07-15
155 niscool 9.0% 14902 07-07-15
156 SonicAD 9.0% 14905 07-07-15
157 SirTobbii 8.8% 14934 07-07-15
158 Shadowthegreat 8.7% 14954 07-07-15
159 superjupi 8.7% 14955 07-07-15
160 SaviourDC 8.4% 14998 07-07-15
161 iarebored 8.4% 14999 07-07-15
162 sonamyfan666 8.3% 15016 07-07-15
163 Werey 8.3% 15024 07-07-15
164 SonicKnuckles 8.2% 15036 07-07-15
165 adf 7.9% 15086 07-07-15
166 ArcticDragon 7.8% 15100 07-07-15
167 Megaman EXE565 7.7% 15124 07-07-15
168 Platformer 7.4% 15165 07-07-15
169 Mariobutch 7.4% 15175 07-07-15
170 FocusSight64 7.3% 15182 07-07-15
171 Swift Hobo 7.2% 15204 07-07-15
172 wheatrich 7.2% 15205 07-07-15
173 timpkmn89 7.2% 15206 07-07-15
174 Rickyman48 7.0% 15226 07-07-15
175 KitsuneYamaro 6.7% 15282 07-07-15
176 Triseena 6.6% 15298 07-07-15
177 CyberShadow 6.5% 15317 07-07-15
178 slade23 6.4% 15337 07-07-15
179 Starlight Sable 6.4% 15339 07-07-15
180 dShadow 6.3% 15346 07-07-15
181 IsisDazs 6.2% 15361 07-07-15
182 BlankTH 6.0% 15398 07-07-15
183 Monkeh 5.8% 15430 07-07-15
184 Richied 5.7% 15451 07-07-15
185 DaDude 5.6% 15462 07-07-15
186 SonicU260 5.6% 15468 07-07-15
187 sonicd5 5.5% 15480 07-07-15
188 Zip 5.4% 15496 07-07-15
189 Kirbymon30 5.1% 15545 07-07-15
190 tal39h 5.1% 15548 07-07-15
191 ethmar 4.9% 15581 07-07-15
192 Drflash55 4.8% 15596 07-07-15
192 soniccoloursunleashed 4.8% 15596 07-07-15
194 Yish 4.7% 15611 07-07-15
195 neaolas 4.6% 15622 07-07-15
196 Bass 4.6% 15628 07-07-15
197 Sonicsuperstar1 4.5% 15636 07-07-15
198 UninspiredUsername 4.5% 15638 07-07-15
199 superiorsonic 4.5% 15641 07-07-15
200 zapp 4.5% 15648 07-07-15
201 gamefreak1292 4.4% 15658 07-07-15
202 Chaos_Overlord 4.1% 15711 07-07-15
203 TakaRikka 4.0% 15728 07-07-15
204 Valfore 3.9% 15736 07-07-15
205 ShinigamiMachine 3.8% 15755 07-07-15
206 Regano1000 3.7% 15773 07-07-15
207 MK 3.6% 15792 07-07-15
208 Ace747 3.5% 15804 07-07-15
209 Illidan 3.2% 15852 07-07-15
210 HHNNBBHHN 3.2% 15858 07-07-15
211 Venick409 3.1% 15865 07-07-15
212 Brian_pso 3.1% 15877 07-07-15
213 Sithwarrior26 3.0% 15883 07-07-15
214 TheChaosEmeraIds 2.9% 15902 07-07-15
215 ingx24 2.9% 15903 07-07-15
216 Nickson98 2.8% 15915 07-07-15
217 SkyBon 2.8% 15916 07-07-15
218 FSSRandomvids 2.8% 15926 07-07-15
219 Fozer 2.7% 15930 07-07-15
220 sonic29887 2.7% 15937 07-07-15
221 Colomb_30 2.7% 15944 07-07-15
222 TheUltraBlur 2.6% 15952 07-07-15
223 1stKirbyever 2.5% 15964 07-07-15
224 Th4tN1nj4Turtl3 2.3% 15996 07-07-15
225 Cort_pso 2.3% 15998 07-07-15
226 Doom-9 2.3% 16003 07-07-15
227 ieatatsonic 2.2% 16016 07-07-15
228 Mariosonic15 2.2% 16017 07-07-15
229 SuperSonic71087 2.2% 16024 07-07-15
230 MStitomix 2.1% 16032 07-07-15
231 HermitHelmet 2.1% 16040 07-07-15
232 Artie 2.0% 16050 07-07-15
233 Got4n 2.0% 16051 07-07-15
234 Questionguy555 2.0% 16057 07-07-15
235 Jose_15 2.0% 16060 07-07-15
236 djmat 1.8% 16078 07-07-15
237 SuperSonicfan9595 1.8% 16080 07-07-15
238 sonicandamy 1.7% 16094 07-07-15
239 LancexExWx 1.7% 16103 07-07-15
240 Heroes_Hater 1.7% 16107 07-07-15
240 son1cgu1tar 1.7% 16107 07-07-15
242 Paixii 1.6% 16110 07-07-15
243 BallzeH 1.5% 16128 07-07-15
244 Jamixesa 1.5% 16135 07-07-15
244 Mankster101 1.5% 16135 07-07-15
246 BecauseWarAnvil 1.5% 16138 07-07-15
247 Crydio 1.4% 16143 07-07-15
248 Shanekilz 1.4% 16148 07-07-15
249 SpiritDragon1995 1.4% 16149 07-07-15
250 ReuelBrony 1.4% 16156 07-07-15
251 stanski 1.3% 16162 07-07-15
252 MarewBFN 1.3% 16165 07-07-15
253 Sonique Hedgehog 1.3% 16171 07-07-15
254 Blue Infamy 1.2% 16178 07-07-15
255 p0ker 1.2% 16179 07-07-15
256 ErrortheCucco 1.2% 16188 07-07-15
257 Arthas 1.2% 16191 07-07-15
257 Rikum22 1.2% 16191 07-07-15
259 sonic1001 1.1% 16199 07-07-15
260 WingedInsignia 1.1% 16202 07-07-15
261 syco1098 1.1% 16206 07-07-15
262 AJSIV 1.1% 16207 07-07-15
263 Sonic the Hedgehod16 1.0% 16210 07-07-15
264 sonicfan9 1.0% 16212 07-07-15
265 Calfd 1.0% 16217 07-07-15
266 BlackArmsShadow 0.9% 16227 07-07-15
267 themachoman202 0.9% 16231 07-07-15
268 RealProjectMVP1 PSN 0.9% 16233 07-07-15
269 Ben1502 0.9% 16237 07-07-15
270 Greham Adelphis 0.9% 16238 07-07-15
271 shadowblast63 Player Banned 0.9% 16239 07-07-15
272 MastaToken 0.9% 16240 07-07-15
273 Fivavoa 0.8% 16241 07-07-15
274 Mr. Jones 0.8% 16242 07-07-15
275 arcfx1985 0.8% 16244 07-07-15
275 darkstarblaze 0.8% 16244 07-07-15
275 ptorflaxendrosis 0.8% 16244 07-07-15
278 FlandreScarlet9999vr 0.8% 16249 07-07-15
278 Gvozdevik 0.8% 16249 07-07-15
278 Knuckles 0.8% 16249 07-07-15
281 Zeldocto 0.8% 16254 07-07-15
282 KaM Mark MaK 0.7% 16258 07-07-15
283 BeeAwwb 0.7% 16261 07-07-15
284 ShadouZaHejjihoggu 0.7% 16265 07-07-15
285 Sonic62 0.7% 16270 07-07-15
286 darkersupershadic 0.6% 16274 07-07-15
286 Sogeking 0.6% 16274 07-07-15
288 Shadygamerfreak 0.6% 16277 07-07-15
289 dragondragon18 0.6% 16278 07-07-15
290 SonicK100 0.6% 16279 07-07-15
291 Grady219 0.6% 16280 07-07-15
291 Sarger001 0.6% 16280 07-07-15
293 Jawaah 0.6% 16283 07-07-15
294 Antek 0.6% 16289 07-07-15
295 SilverK 0.5% 16290 07-07-15
296 Klaus 0.5% 16291 07-07-15
297 SpinDashMaster 0.5% 16294 07-07-15
298 BioShadow 0.5% 16296 07-07-15
299 Videogamer123 0.5% 16299 07-07-15
300 oTaiIilLsS 0.4% 16313 07-07-15
301 Egor305 0.4% 16314 07-07-15
302 Mad Andy 0.4% 16315 07-07-15
303 isaihtb11 0.4% 16316 07-07-15
304 OhNoes! 0.4% 16317 07-07-15
305 S-MS32X-S 0.4% 16319 07-07-15
305 zaktu40 0.4% 16319 07-07-15
307 gaara1234 0.4% 16322 07-07-15
308 gamed00d 0.3% 16324 07-07-15
309 Mister_Slick 0.3% 16332 07-07-15
310 Sonic06Fan 0.3% 16334 07-07-15
311 Rush Hero 0.3% 16336 07-07-15
312 Iwannabelink 0.2% 16340 07-07-15
312 SonicMega167 0.2% 16340 07-07-15
314 sonknuck23 0.2% 16345 07-07-15
315 DanielTheFalcon 0.2% 16350 07-07-15
315 gamer1245 0.2% 16350 07-07-15
317 Burningskull123 0.1% 16359 07-07-15
318 Sonicontherun 0.1% 16368 07-07-15
319 Lil_Dude 0.0% 16372 07-07-15
320 antiwwe 0.0% 16374 07-07-15
321 Cbwade15 0.0% 16378 07-07-15
321 Genuine Hedgehog 0.0% 16378 07-07-15
323 Tyrouble 0.0% 16381 07-07-15
324 MegabombBlade 0.0% 16388 07-07-15
324 neji_hyuuga 0.0% 16388 07-07-15
324 Over 0.0% 16388 07-07-15
324 sdj6707 Player Banned 0.0% 16388 07-07-15
324 Tran Sonic Fan Player Banned 0.0% 16388 07-07-15

This page is using the New Data Table System. [FUTURE]

Game ID: 3 | Category ID: 10
Hits: 63,843 | Hits This Month: 78 | DB Calls: 21 | Mem Usage: 5.45 MB | Time: 0.12s | Printable

The Sonic Center v3.9
Copyright 2003-2011 by The Sonic Center Team.